Saturday, January 20, 2018, 3:04 PM GMT
Back to Local

CXKT, Kentville , N. S.

Location: , , Canada Lat: 45.067
Local Time: 3:04 PM GMT (15:04 GMT) Lon: -64.483
Time Zone: GMT Elev: 160 ft

Show me the last for .
Show Decoded

2018-01-20 14:00 METAR CXKT 201400Z AUTO 18005G15KT M00/M01 RMK AO1 PRESFR SOG 20 8046 SLP009
                 T10041011 =
2018-01-20 13:00 METAR CXKT 201300Z AUTO 20005KT M01/M02 RMK AO1 SOG 20 6030 SLP035 T10101021 =
2018-01-20 12:00 METAR CXKT 201200Z AUTO 17006KT M02/M03 RMK AO1 SOG 21 8032 SLP042 T10221033 =
2018-01-20 11:00 METAR CXKT 201100Z AUTO 18006KT M03/M04 RMK AO1 SOG 21 8027 SLP055 T10301043 =
2018-01-20 10:00 METAR CXKT 201000Z AUTO 18006KT M04/M05 RMK AO1 SOG 21 8024 SLP065 T10381052 =
2018-01-20 09:00 METAR CXKT 200900Z AUTO 17006KT M04/M06 RMK AO1 SOG 21 6030 SLP074 T10431063 =
2018-01-20 08:00 METAR CXKT 200800Z AUTO 18003KT M04/M06 RMK AO1 SOG 21 7029 SLP082 T10351055 =
2018-01-20 07:00 METAR CXKT 200700Z AUTO 35001KT M07/M08 RMK AO1 SOG 21 8031 SLP089 T10651080 =
2018-01-20 06:00 METAR CXKT 200600Z AUTO 35002KT M08/M09 RMK AO1 SOG 21 8019 SLP104 T10821094 =
2018-01-20 05:00 METAR CXKT 200500Z AUTO 20002KT M06/M08 RMK AO1 SOG 21 8007 SLP111 T10641081 =
2018-01-20 04:00 METAR CXKT 200400Z AUTO 26003KT M09/M10 RMK AO1 SOG 21 0002 SLP121 T10891100 =
2018-01-20 03:00 METAR CXKT 200300Z AUTO 22004KT M11/M12 RMK AO1 SOG 21 3007 SLP124 T11051116 =
2018-01-20 02:00 METAR CXKT 200200Z AUTO 19004KT M11/M12 RMK AO1 SOG 21 3001 SLP119 T11141115 =
2018-01-20 01:00 METAR CXKT 200100Z AUTO 20004KT M11/M12 RMK AO1 SOG 21 3001 SLP119 T11131124 =
2018-01-20 00:00 METAR CXKT 200000Z AUTO 18004KT M10/M11 RMK AO1 SOG 21 0002 SLP117 T11041114 =
2018-01-19 23:00 METAR CXKT 192300Z AUTO 20003KT M09/M10 RMK AO1 SOG 21 1006 SLP118 T10901104 =
2018-01-19 22:00 METAR CXKT 192200Z AUTO 22004KT M08/M10 RMK AO1 SOG 21 3006 SLP118 T10761095 =
2018-01-19 21:00 METAR CXKT 192100Z AUTO 24003KT M07/M09 RMK AO1 SOG 21 2006 SLP115 T10681094 =
2018-01-19 20:00 METAR CXKT 192000Z AUTO 31005KT M06/M10 RMK AO1 SOG 21 1004 SLP112 T10571098 =
2018-01-19 19:00 METAR CXKT 191900Z AUTO 26003KT M06/M09 RMK AO1 SOG 21 3001 SLP112 T10571090 =
2018-01-19 18:00 METAR CXKT 191800Z AUTO 32004KT M06/M10 RMK AO1 SOG 21 5007 SLP109 T10641097
                 50002 =
2018-01-19 17:00 METAR CXKT 191700Z AUTO 36003KT M06/M10 RMK AO1 SOG 22 8005 SLP108 T10551100
                 50002 =
2018-01-19 16:00 METAR CXKT 191600Z AUTO 35005KT M07/M10 RMK AO1 SOG 22 8005 SLP111 T10691104
                 50002 =

Support USWX by starting your Amazon purchase here.